sensor_id;sensor_type;location;lat;lon;timestamp;pressure;altitude;pressure_sealevel;temperature
10058;BMP180;5068;51.286;7.518;2022-11-22T00:01:12;97047.00;;;9.30
10058;BMP180;5068;51.286;7.518;2022-11-22T00:02:46;97040.00;;;9.30
10058;BMP180;5068;51.286;7.518;2022-11-22T00:04:20;97042.00;;;9.30
10058;BMP180;5068;51.286;7.518;2022-11-22T00:05:53;97041.00;;;9.30
10058;BMP180;5068;51.286;7.518;2022-11-22T00:07:26;97037.00;;;9.30
10058;BMP180;5068;51.286;7.518;2022-11-22T00:08:58;97043.00;;;9.30
10058;BMP180;5068;51.286;7.518;2022-11-22T00:10:32;97046.00;;;9.40
10058;BMP180;5068;51.286;7.518;2022-11-22T00:12:06;97048.00;;;9.30
10058;BMP180;5068;51.286;7.518;2022-11-22T00:13:39;97045.00;;;9.30
10058;BMP180;5068;51.286;7.518;2022-11-22T00:15:14;97051.00;;;9.30
10058;BMP180;5068;51.286;7.518;2022-11-22T00:16:46;97044.00;;;9.30
10058;BMP180;5068;51.286;7.518;2022-11-22T00:18:19;97047.00;;;9.30
10058;BMP180;5068;51.286;7.518;2022-11-22T00:19:53;97046.00;;;9.40
10058;BMP180;5068;51.286;7.518;2022-11-22T00:21:26;97040.00;;;9.40
10058;BMP180;5068;51.286;7.518;2022-11-22T00:22:59;97039.00;;;9.40
10058;BMP180;5068;51.286;7.518;2022-11-22T00:24:31;97041.00;;;9.40
10058;BMP180;5068;51.286;7.518;2022-11-22T00:26:05;97028.00;;;9.30
10058;BMP180;5068;51.286;7.518;2022-11-22T00:27:43;97033.00;;;9.40
10058;BMP180;5068;51.286;7.518;2022-11-22T00:29:16;97022.00;;;9.40
10058;BMP180;5068;51.286;7.518;2022-11-22T00:30:50;97022.00;;;9.30
10058;BMP180;5068;51.286;7.518;2022-11-22T00:32:23;97017.00;;;9.30
10058;BMP180;5068;51.286;7.518;2022-11-22T00:33:56;97022.00;;;9.30
10058;BMP180;5068;51.286;7.518;2022-11-22T00:35:29;97019.00;;;9.30
10058;BMP180;5068;51.286;7.518;2022-11-22T00:37:02;97008.00;;;9.30
10058;BMP180;5068;51.286;7.518;2022-11-22T00:38:35;97007.00;;;9.30
10058;BMP180;5068;51.286;7.518;2022-11-22T00:40:09;97014.00;;;9.30
10058;BMP180;5068;51.286;7.518;2022-11-22T00:41:43;97017.00;;;9.30
10058;BMP180;5068;51.286;7.518;2022-11-22T00:43:16;97017.00;;;9.40
10058;BMP180;5068;51.286;7.518;2022-11-22T00:44:49;97012.00;;;9.40
10058;BMP180;5068;51.286;7.518;2022-11-22T00:46:24;97023.00;;;9.40
10058;BMP180;5068;51.286;7.518;2022-11-22T00:47:57;97010.00;;;9.40
10058;BMP180;5068;51.286;7.518;2022-11-22T00:49:29;97007.00;;;9.40
10058;BMP180;5068;51.286;7.518;2022-11-22T00:51:03;96999.00;;;9.40
10058;BMP180;5068;51.286;7.518;2022-11-22T00:52:36;97006.00;;;9.40
10058;BMP180;5068;51.286;7.518;2022-11-22T00:54:10;97025.00;;;9.40
10058;BMP180;5068;51.286;7.518;2022-11-22T00:55:44;97023.00;;;9.40
10058;BMP180;5068;51.286;7.518;2022-11-22T00:57:17;97022.00;;;9.40
10058;BMP180;5068;51.286;7.518;2022-11-22T00:58:50;97010.00;;;9.40
10058;BMP180;5068;51.286;7.518;2022-11-22T01:00:23;97011.00;;;9.40
10058;BMP180;5068;51.286;7.518;2022-11-22T01:01:58;97003.00;;;9.40
10058;BMP180;5068;51.286;7.518;2022-11-22T01:03:31;97018.00;;;9.40
10058;BMP180;5068;51.286;7.518;2022-11-22T01:05:05;97014.00;;;9.40
10058;BMP180;5068;51.286;7.518;2022-11-22T01:06:37;97019.00;;;9.40
10058;BMP180;5068;51.286;7.518;2022-11-22T01:08:10;97028.00;;;9.40
10058;BMP180;5068;51.286;7.518;2022-11-22T01:09:44;97018.00;;;9.30
10058;BMP180;5068;51.286;7.518;2022-11-22T01:11:18;97010.00;;;9.40
10058;BMP180;5068;51.286;7.518;2022-11-22T01:12:51;97003.00;;;9.40
10058;BMP180;5068;51.286;7.518;2022-11-22T01:14:24;96999.00;;;9.40
10058;BMP180;5068;51.286;7.518;2022-11-22T01:15:59;97008.00;;;9.40
10058;BMP180;5068;51.286;7.518;2022-11-22T01:17:34;97008.00;;;9.40
10058;BMP180;5068;51.286;7.518;2022-11-22T01:19:08;97002.00;;;9.40
10058;BMP180;5068;51.286;7.518;2022-11-22T01:20:42;97006.00;;;9.40
10058;BMP180;5068;51.286;7.518;2022-11-22T01:22:15;97008.00;;;9.40
10058;BMP180;5068;51.286;7.518;2022-11-22T01:23:50;97007.00;;;9.40
10058;BMP180;5068;51.286;7.518;2022-11-22T01:25:26;97003.00;;;9.40
10058;BMP180;5068;51.286;7.518;2022-11-22T01:27:01;97008.00;;;9.40
10058;BMP180;5068;51.286;7.518;2022-11-22T01:28:37;97015.00;;;9.40
10058;BMP180;5068;51.286;7.518;2022-11-22T01:30:12;97016.00;;;9.40
10058;BMP180;5068;51.286;7.518;2022-11-22T01:31:45;97025.00;;;9.40
10058;BMP180;5068;51.286;7.518;2022-11-22T01:33:20;97028.00;;;9.40
10058;BMP180;5068;51.286;7.518;2022-11-22T01:34:53;97028.00;;;9.40
10058;BMP180;5068;51.286;7.518;2022-11-22T01:36:27;97021.00;;;9.40
10058;BMP180;5068;51.286;7.518;2022-11-22T01:38:00;97023.00;;;9.40
10058;BMP180;5068;51.286;7.518;2022-11-22T01:39:33;97014.00;;;9.40
10058;BMP180;5068;51.286;7.518;2022-11-22T01:41:06;97014.00;;;9.40
10058;BMP180;5068;51.286;7.518;2022-11-22T01:42:44;97017.00;;;9.40
10058;BMP180;5068;51.286;7.518;2022-11-22T01:44:26;97021.00;;;9.40
10058;BMP180;5068;51.286;7.518;2022-11-22T01:46:01;97016.00;;;9.40
10058;BMP180;5068;51.286;7.518;2022-11-22T01:47:35;97022.00;;;9.40
10058;BMP180;5068;51.286;7.518;2022-11-22T01:49:19;97022.00;;;9.50
10058;BMP180;5068;51.286;7.518;2022-11-22T01:51:00;97027.00;;;9.50
10058;BMP180;5068;51.286;7.518;2022-11-22T01:52:34;97030.00;;;9.50
10058;BMP180;5068;51.286;7.518;2022-11-22T01:54:15;97032.00;;;9.50
10058;BMP180;5068;51.286;7.518;2022-11-22T01:55:51;97041.00;;;9.50
10058;BMP180;5068;51.286;7.518;2022-11-22T01:57:29;97036.00;;;9.50
10058;BMP180;5068;51.286;7.518;2022-11-22T01:59:11;97042.00;;;9.50
10058;BMP180;5068;51.286;7.518;2022-11-22T02:00:46;97044.00;;;9.50
10058;BMP180;5068;51.286;7.518;2022-11-22T02:02:21;97049.00;;;9.50
10058;BMP180;5068;51.286;7.518;2022-11-22T02:03:56;97045.00;;;9.50
10058;BMP180;5068;51.286;7.518;2022-11-22T02:05:35;97036.00;;;9.50
10058;BMP180;5068;51.286;7.518;2022-11-22T02:07:20;97035.00;;;9.60
10058;BMP180;5068;51.286;7.518;2022-11-22T02:09:01;97036.00;;;9.50
10058;BMP180;5068;51.286;7.518;2022-11-22T02:10:43;97051.00;;;9.60
10058;BMP180;5068;51.286;7.518;2022-11-22T02:12:23;97043.00;;;9.60
10058;BMP180;5068;51.286;7.518;2022-11-22T02:13:58;97050.00;;;9.60
10058;BMP180;5068;51.286;7.518;2022-11-22T02:15:31;97046.00;;;9.60
10058;BMP180;5068;51.286;7.518;2022-11-22T02:17:04;97052.00;;;9.60
10058;BMP180;5068;51.286;7.518;2022-11-22T02:18:38;97052.00;;;9.60
10058;BMP180;5068;51.286;7.518;2022-11-22T02:20:12;97048.00;;;9.60
10058;BMP180;5068;51.286;7.518;2022-11-22T02:21:54;97060.00;;;9.60
10058;BMP180;5068;51.286;7.518;2022-11-22T02:23:43;97042.00;;;9.60
10058;BMP180;5068;51.286;7.518;2022-11-22T02:25:24;97047.00;;;9.60
10058;BMP180;5068;51.286;7.518;2022-11-22T02:27:01;97047.00;;;9.60
10058;BMP180;5068;51.286;7.518;2022-11-22T02:28:36;97053.00;;;9.60
10058;BMP180;5068;51.286;7.518;2022-11-22T02:30:13;97051.00;;;9.60
10058;BMP180;5068;51.286;7.518;2022-11-22T02:31:47;97067.00;;;9.60
10058;BMP180;5068;51.286;7.518;2022-11-22T02:33:23;97062.00;;;9.60
10058;BMP180;5068;51.286;7.518;2022-11-22T02:34:57;97056.00;;;9.60
10058;BMP180;5068;51.286;7.518;2022-11-22T02:36:37;97061.00;;;9.60
10058;BMP180;5068;51.286;7.518;2022-11-22T02:38:16;97058.00;;;9.60
10058;BMP180;5068;51.286;7.518;2022-11-22T02:39:55;97065.00;;;9.60
10058;BMP180;5068;51.286;7.518;2022-11-22T02:41:29;97070.00;;;9.70
10058;BMP180;5068;51.286;7.518;2022-11-22T02:43:08;97067.00;;;9.70
10058;BMP180;5068;51.286;7.518;2022-11-22T02:44:43;97076.00;;;9.70
10058;BMP180;5068;51.286;7.518;2022-11-22T02:46:16;97079.00;;;9.70
10058;BMP180;5068;51.286;7.518;2022-11-22T02:47:52;97080.00;;;9.70
10058;BMP180;5068;51.286;7.518;2022-11-22T02:49:25;97070.00;;;9.70
10058;BMP180;5068;51.286;7.518;2022-11-22T02:50:57;97085.00;;;9.70
10058;BMP180;5068;51.286;7.518;2022-11-22T02:52:30;97081.00;;;9.70
10058;BMP180;5068;51.286;7.518;2022-11-22T02:54:04;97074.00;;;9.70
10058;BMP180;5068;51.286;7.518;2022-11-22T02:55:38;97073.00;;;9.70
10058;BMP180;5068;51.286;7.518;2022-11-22T02:57:11;97081.00;;;9.80
10058;BMP180;5068;51.286;7.518;2022-11-22T02:58:45;97079.00;;;9.80
10058;BMP180;5068;51.286;7.518;2022-11-22T03:00:19;97078.00;;;9.80
10058;BMP180;5068;51.286;7.518;2022-11-22T03:01:53;97080.00;;;9.80
10058;BMP180;5068;51.286;7.518;2022-11-22T03:03:34;97069.00;;;9.80
10058;BMP180;5068;51.286;7.518;2022-11-22T03:05:07;97082.00;;;9.80
10058;BMP180;5068;51.286;7.518;2022-11-22T03:06:41;97079.00;;;9.80
10058;BMP180;5068;51.286;7.518;2022-11-22T03:08:14;97077.00;;;9.80
10058;BMP180;5068;51.286;7.518;2022-11-22T03:09:46;97083.00;;;9.80
10058;BMP180;5068;51.286;7.518;2022-11-22T03:11:19;97087.00;;;9.80
10058;BMP180;5068;51.286;7.518;2022-11-22T03:12:52;97082.00;;;9.80
10058;BMP180;5068;51.286;7.518;2022-11-22T03:14:26;97079.00;;;9.80
10058;BMP180;5068;51.286;7.518;2022-11-22T03:16:00;97094.00;;;9.80
10058;BMP180;5068;51.286;7.518;2022-11-22T03:17:33;97093.00;;;9.80
10058;BMP180;5068;51.286;7.518;2022-11-22T03:19:06;97092.00;;;9.80
10058;BMP180;5068;51.286;7.518;2022-11-22T03:20:40;97094.00;;;9.80
10058;BMP180;5068;51.286;7.518;2022-11-22T03:22:13;97087.00;;;9.90
10058;BMP180;5068;51.286;7.518;2022-11-22T03:23:46;97095.00;;;9.80
10058;BMP180;5068;51.286;7.518;2022-11-22T03:25:21;97088.00;;;9.90
10058;BMP180;5068;51.286;7.518;2022-11-22T03:26:54;97079.00;;;9.80
10058;BMP180;5068;51.286;7.518;2022-11-22T03:28:27;97099.00;;;9.80
10058;BMP180;5068;51.286;7.518;2022-11-22T03:30:03;97088.00;;;9.90
10058;BMP180;5068;51.286;7.518;2022-11-22T03:31:36;97089.00;;;9.90
10058;BMP180;5068;51.286;7.518;2022-11-22T03:33:09;97096.00;;;9.90
10058;BMP180;5068;51.286;7.518;2022-11-22T03:34:43;97099.00;;;9.90
10058;BMP180;5068;51.286;7.518;2022-11-22T03:36:15;97101.00;;;9.90
10058;BMP180;5068;51.286;7.518;2022-11-22T03:37:48;97101.00;;;9.90
10058;BMP180;5068;51.286;7.518;2022-11-22T03:39:20;97099.00;;;9.90
10058;BMP180;5068;51.286;7.518;2022-11-22T03:40:54;97109.00;;;9.90
10058;BMP180;5068;51.286;7.518;2022-11-22T03:42:27;97102.00;;;9.90
10058;BMP180;5068;51.286;7.518;2022-11-22T03:44:00;97110.00;;;9.90
10058;BMP180;5068;51.286;7.518;2022-11-22T03:45:34;97105.00;;;9.90
10058;BMP180;5068;51.286;7.518;2022-11-22T03:47:08;97111.00;;;9.90
10058;BMP180;5068;51.286;7.518;2022-11-22T03:48:41;97103.00;;;9.90
10058;BMP180;5068;51.286;7.518;2022-11-22T03:50:14;97110.00;;;9.90
10058;BMP180;5068;51.286;7.518;2022-11-22T03:51:47;97104.00;;;9.90
10058;BMP180;5068;51.286;7.518;2022-11-22T03:53:21;97107.00;;;9.90
10058;BMP180;5068;51.286;7.518;2022-11-22T03:54:54;97113.00;;;9.90
10058;BMP180;5068;51.286;7.518;2022-11-22T03:56:28;97119.00;;;9.90
10058;BMP180;5068;51.286;7.518;2022-11-22T03:58:01;97120.00;;;9.90
10058;BMP180;5068;51.286;7.518;2022-11-22T03:59:34;97127.00;;;9.80
10058;BMP180;5068;51.286;7.518;2022-11-22T04:01:09;97121.00;;;9.80
10058;BMP180;5068;51.286;7.518;2022-11-22T04:02:47;97118.00;;;9.80
10058;BMP180;5068;51.286;7.518;2022-11-22T04:04:21;97127.00;;;9.80
10058;BMP180;5068;51.286;7.518;2022-11-22T04:05:54;97122.00;;;9.80
10058;BMP180;5068;51.286;7.518;2022-11-22T04:07:26;97128.00;;;9.80
10058;BMP180;5068;51.286;7.518;2022-11-22T04:09:01;97124.00;;;9.80
10058;BMP180;5068;51.286;7.518;2022-11-22T04:10:34;97126.00;;;9.80
10058;BMP180;5068;51.286;7.518;2022-11-22T04:12:07;97135.00;;;9.80
10058;BMP180;5068;51.286;7.518;2022-11-22T04:13:40;97129.00;;;9.70
10058;BMP180;5068;51.286;7.518;2022-11-22T04:15:31;97128.00;;;9.70
10058;BMP180;5068;51.286;7.518;2022-11-22T04:17:06;97141.00;;;9.70
10058;BMP180;5068;51.286;7.518;2022-11-22T04:18:38;97135.00;;;9.70
10058;BMP180;5068;51.286;7.518;2022-11-22T04:20:15;97142.00;;;9.60
10058;BMP180;5068;51.286;7.518;2022-11-22T04:22:06;97150.00;;;9.60
10058;BMP180;5068;51.286;7.518;2022-11-22T04:23:39;97159.00;;;9.60
10058;BMP180;5068;51.286;7.518;2022-11-22T04:25:14;97150.00;;;9.50
10058;BMP180;5068;51.286;7.518;2022-11-22T04:26:46;97151.00;;;9.50
10058;BMP180;5068;51.286;7.518;2022-11-22T04:28:22;97151.00;;;9.50
10058;BMP180;5068;51.286;7.518;2022-11-22T04:30:16;97158.00;;;9.50
10058;BMP180;5068;51.286;7.518;2022-11-22T04:31:52;97160.00;;;9.40
10058;BMP180;5068;51.286;7.518;2022-11-22T04:33:44;97154.00;;;9.40
10058;BMP180;5068;51.286;7.518;2022-11-22T04:35:17;97157.00;;;9.40
10058;BMP180;5068;51.286;7.518;2022-11-22T04:36:51;97151.00;;;9.40
10058;BMP180;5068;51.286;7.518;2022-11-22T04:38:25;97158.00;;;9.40
10058;BMP180;5068;51.286;7.518;2022-11-22T04:39:58;97150.00;;;9.40
10058;BMP180;5068;51.286;7.518;2022-11-22T04:41:31;97151.00;;;9.40
10058;BMP180;5068;51.286;7.518;2022-11-22T04:43:06;97157.00;;;9.30
10058;BMP180;5068;51.286;7.518;2022-11-22T04:44:57;97159.00;;;9.30
10058;BMP180;5068;51.286;7.518;2022-11-22T04:46:29;97156.00;;;9.30
10058;BMP180;5068;51.286;7.518;2022-11-22T04:48:03;97164.00;;;9.30
10058;BMP180;5068;51.286;7.518;2022-11-22T04:49:37;97158.00;;;9.20
10058;BMP180;5068;51.286;7.518;2022-11-22T04:51:13;97155.00;;;9.20
10058;BMP180;5068;51.286;7.518;2022-11-22T04:53:04;97152.00;;;9.20
10058;BMP180;5068;51.286;7.518;2022-11-22T04:54:36;97163.00;;;9.20
10058;BMP180;5068;51.286;7.518;2022-11-22T04:56:10;97166.00;;;9.20
10058;BMP180;5068;51.286;7.518;2022-11-22T04:57:43;97148.00;;;9.10
10058;BMP180;5068;51.286;7.518;2022-11-22T04:59:16;97161.00;;;9.10
10058;BMP180;5068;51.286;7.518;2022-11-22T05:00:51;97148.00;;;9.10
10058;BMP180;5068;51.286;7.518;2022-11-22T05:02:24;97143.00;;;9.10
10058;BMP180;5068;51.286;7.518;2022-11-22T05:03:58;97150.00;;;9.10
10058;BMP180;5068;51.286;7.518;2022-11-22T05:05:34;97147.00;;;9.10
10058;BMP180;5068;51.286;7.518;2022-11-22T05:07:08;97153.00;;;9.10
10058;BMP180;5068;51.286;7.518;2022-11-22T05:08:42;97158.00;;;9.00
10058;BMP180;5068;51.286;7.518;2022-11-22T05:10:15;97152.00;;;9.00
10058;BMP180;5068;51.286;7.518;2022-11-22T05:11:55;97148.00;;;9.00
10058;BMP180;5068;51.286;7.518;2022-11-22T05:13:32;97149.00;;;8.90
10058;BMP180;5068;51.286;7.518;2022-11-22T05:15:06;97161.00;;;8.90
10058;BMP180;5068;51.286;7.518;2022-11-22T05:16:39;97149.00;;;8.80
10058;BMP180;5068;51.286;7.518;2022-11-22T05:18:12;97154.00;;;8.80
10058;BMP180;5068;51.286;7.518;2022-11-22T05:19:45;97154.00;;;8.80
10058;BMP180;5068;51.286;7.518;2022-11-22T05:21:21;97152.00;;;8.70
10058;BMP180;5068;51.286;7.518;2022-11-22T05:22:55;97157.00;;;8.70
10058;BMP180;5068;51.286;7.518;2022-11-22T05:24:46;97158.00;;;8.60
10058;BMP180;5068;51.286;7.518;2022-11-22T05:26:20;97152.00;;;8.60
10058;BMP180;5068;51.286;7.518;2022-11-22T05:27:53;97163.00;;;8.50
10058;BMP180;5068;51.286;7.518;2022-11-22T05:29:27;97144.00;;;8.50
10058;BMP180;5068;51.286;7.518;2022-11-22T05:31:07;97148.00;;;8.40
10058;BMP180;5068;51.286;7.518;2022-11-22T05:32:40;97158.00;;;8.40
10058;BMP180;5068;51.286;7.518;2022-11-22T05:34:13;97159.00;;;8.30
10058;BMP180;5068;51.286;7.518;2022-11-22T05:35:47;97153.00;;;8.30
10058;BMP180;5068;51.286;7.518;2022-11-22T05:37:20;97155.00;;;8.30
10058;BMP180;5068;51.286;7.518;2022-11-22T05:38:54;97154.00;;;8.30
10058;BMP180;5068;51.286;7.518;2022-11-22T05:40:27;97154.00;;;8.20
10058;BMP180;5068;51.286;7.518;2022-11-22T05:41:59;97164.00;;;8.20
10058;BMP180;5068;51.286;7.518;2022-11-22T05:43:33;97160.00;;;8.20
10058;BMP180;5068;51.286;7.518;2022-11-22T05:45:07;97166.00;;;8.10
10058;BMP180;5068;51.286;7.518;2022-11-22T05:46:41;97165.00;;;8.10
10058;BMP180;5068;51.286;7.518;2022-11-22T05:48:14;97169.00;;;8.00
10058;BMP180;5068;51.286;7.518;2022-11-22T05:49:47;97176.00;;;8.00
10058;BMP180;5068;51.286;7.518;2022-11-22T05:51:23;97180.00;;;7.90
10058;BMP180;5068;51.286;7.518;2022-11-22T05:53:06;97181.00;;;7.90
10058;BMP180;5068;51.286;7.518;2022-11-22T05:54:39;97179.00;;;7.90
10058;BMP180;5068;51.286;7.518;2022-11-22T05:56:14;97181.00;;;7.90
10058;BMP180;5068;51.286;7.518;2022-11-22T05:57:47;97194.00;;;7.80
10058;BMP180;5068;51.286;7.518;2022-11-22T05:59:21;97187.00;;;7.80
10058;BMP180;5068;51.286;7.518;2022-11-22T06:00:54;97188.00;;;7.80
10058;BMP180;5068;51.286;7.518;2022-11-22T06:02:30;97187.00;;;7.70
10058;BMP180;5068;51.286;7.518;2022-11-22T06:04:03;97194.00;;;7.70
10058;BMP180;5068;51.286;7.518;2022-11-22T06:05:36;97186.00;;;7.70
10058;BMP180;5068;51.286;7.518;2022-11-22T06:07:10;97194.00;;;7.70
10058;BMP180;5068;51.286;7.518;2022-11-22T06:08:45;97201.00;;;7.70
10058;BMP180;5068;51.286;7.518;2022-11-22T06:10:20;97208.00;;;7.60
10058;BMP180;5068;51.286;7.518;2022-11-22T06:11:53;97208.00;;;7.60
10058;BMP180;5068;51.286;7.518;2022-11-22T06:13:26;97212.00;;;7.60
10058;BMP180;5068;51.286;7.518;2022-11-22T06:14:59;97212.00;;;7.60
10058;BMP180;5068;51.286;7.518;2022-11-22T06:16:32;97215.00;;;7.60
10058;BMP180;5068;51.286;7.518;2022-11-22T06:18:05;97219.00;;;7.50
10058;BMP180;5068;51.286;7.518;2022-11-22T06:19:39;97224.00;;;7.50
10058;BMP180;5068;51.286;7.518;2022-11-22T06:21:15;97216.00;;;7.40
10058;BMP180;5068;51.286;7.518;2022-11-22T06:22:48;97216.00;;;7.40
10058;BMP180;5068;51.286;7.518;2022-11-22T06:24:23;97225.00;;;7.40
10058;BMP180;5068;51.286;7.518;2022-11-22T06:25:58;97228.00;;;7.40
10058;BMP180;5068;51.286;7.518;2022-11-22T06:27:32;97234.00;;;7.30
10058;BMP180;5068;51.286;7.518;2022-11-22T06:29:05;97231.00;;;7.30
10058;BMP180;5068;51.286;7.518;2022-11-22T06:30:39;97241.00;;;7.30
10058;BMP180;5068;51.286;7.518;2022-11-22T06:32:12;97229.00;;;7.20
10058;BMP180;5068;51.286;7.518;2022-11-22T06:33:46;97234.00;;;7.20
10058;BMP180;5068;51.286;7.518;2022-11-22T06:35:18;97244.00;;;7.10
10058;BMP180;5068;51.286;7.518;2022-11-22T06:36:51;97234.00;;;7.10
10058;BMP180;5068;51.286;7.518;2022-11-22T06:38:25;97245.00;;;7.10
10058;BMP180;5068;51.286;7.518;2022-11-22T06:39:59;97236.00;;;7.00
10058;BMP180;5068;51.286;7.518;2022-11-22T06:41:36;97241.00;;;7.00
10058;BMP180;5068;51.286;7.518;2022-11-22T06:43:09;97229.00;;;7.00
10058;BMP180;5068;51.286;7.518;2022-11-22T06:44:42;97236.00;;;6.90
10058;BMP180;5068;51.286;7.518;2022-11-22T06:46:18;97226.00;;;6.90
10058;BMP180;5068;51.286;7.518;2022-11-22T06:47:51;97232.00;;;6.90
10058;BMP180;5068;51.286;7.518;2022-11-22T06:49:24;97244.00;;;6.80
10058;BMP180;5068;51.286;7.518;2022-11-22T06:50:59;97252.00;;;6.80
10058;BMP180;5068;51.286;7.518;2022-11-22T06:52:32;97253.00;;;6.80
10058;BMP180;5068;51.286;7.518;2022-11-22T06:54:09;97253.00;;;6.80
10058;BMP180;5068;51.286;7.518;2022-11-22T06:55:43;97249.00;;;6.80
10058;BMP180;5068;51.286;7.518;2022-11-22T06:57:22;97258.00;;;6.80
10058;BMP180;5068;51.286;7.518;2022-11-22T06:58:59;97249.00;;;6.70
10058;BMP180;5068;51.286;7.518;2022-11-22T07:00:33;97242.00;;;6.70
10058;BMP180;5068;51.286;7.518;2022-11-22T07:02:10;97255.00;;;6.60
10058;BMP180;5068;51.286;7.518;2022-11-22T07:03:45;97254.00;;;6.60
10058;BMP180;5068;51.286;7.518;2022-11-22T07:05:18;97270.00;;;6.60
10058;BMP180;5068;51.286;7.518;2022-11-22T07:06:57;97270.00;;;6.50
10058;BMP180;5068;51.286;7.518;2022-11-22T07:08:30;97265.00;;;6.50
10058;BMP180;5068;51.286;7.518;2022-11-22T07:10:05;97271.00;;;6.50
10058;BMP180;5068;51.286;7.518;2022-11-22T07:11:40;97268.00;;;6.40
10058;BMP180;5068;51.286;7.518;2022-11-22T07:13:13;97273.00;;;6.40
10058;BMP180;5068;51.286;7.518;2022-11-22T07:14:46;97281.00;;;6.40
10058;BMP180;5068;51.286;7.518;2022-11-22T07:16:21;97287.00;;;6.40
10058;BMP180;5068;51.286;7.518;2022-11-22T07:17:54;97282.00;;;6.40
10058;BMP180;5068;51.286;7.518;2022-11-22T07:19:27;97288.00;;;6.40
10058;BMP180;5068;51.286;7.518;2022-11-22T07:21:04;97291.00;;;6.40
10058;BMP180;5068;51.286;7.518;2022-11-22T07:22:46;97292.00;;;6.30
10058;BMP180;5068;51.286;7.518;2022-11-22T07:24:19;97290.00;;;6.30
10058;BMP180;5068;51.286;7.518;2022-11-22T07:25:52;97293.00;;;6.30
10058;BMP180;5068;51.286;7.518;2022-11-22T07:27:27;97294.00;;;6.30
10058;BMP180;5068;51.286;7.518;2022-11-22T07:29:00;97288.00;;;6.30
10058;BMP180;5068;51.286;7.518;2022-11-22T07:30:33;97295.00;;;6.30
10058;BMP180;5068;51.286;7.518;2022-11-22T07:32:13;97282.00;;;6.30
10058;BMP180;5068;51.286;7.518;2022-11-22T07:33:46;97287.00;;;6.30
10058;BMP180;5068;51.286;7.518;2022-11-22T07:35:20;97290.00;;;6.20
10058;BMP180;5068;51.286;7.518;2022-11-22T07:36:53;97293.00;;;6.20
10058;BMP180;5068;51.286;7.518;2022-11-22T07:38:35;97299.00;;;6.20
10058;BMP180;5068;51.286;7.518;2022-11-22T07:40:11;97302.00;;;6.20
10058;BMP180;5068;51.286;7.518;2022-11-22T07:41:44;97298.00;;;6.20
10058;BMP180;5068;51.286;7.518;2022-11-22T07:43:19;97306.00;;;6.20
10058;BMP180;5068;51.286;7.518;2022-11-22T07:44:52;97298.00;;;6.20
10058;BMP180;5068;51.286;7.518;2022-11-22T07:46:27;97295.00;;;6.20
10058;BMP180;5068;51.286;7.518;2022-11-22T07:48:03;97303.00;;;6.20
10058;BMP180;5068;51.286;7.518;2022-11-22T07:49:36;97296.00;;;6.20
10058;BMP180;5068;51.286;7.518;2022-11-22T07:51:10;97298.00;;;6.30
10058;BMP180;5068;51.286;7.518;2022-11-22T07:52:44;97295.00;;;6.30
10058;BMP180;5068;51.286;7.518;2022-11-22T07:54:17;97292.00;;;6.30
10058;BMP180;5068;51.286;7.518;2022-11-22T07:55:50;97299.00;;;6.30
10058;BMP180;5068;51.286;7.518;2022-11-22T07:57:23;97291.00;;;6.30
10058;BMP180;5068;51.286;7.518;2022-11-22T07:58:58;97296.00;;;6.30
10058;BMP180;5068;51.286;7.518;2022-11-22T08:00:32;97294.00;;;6.30
10058;BMP180;5068;51.286;7.518;2022-11-22T08:02:05;97300.00;;;6.30
10058;BMP180;5068;51.286;7.518;2022-11-22T08:03:39;97298.00;;;6.30
10058;BMP180;5068;51.286;7.518;2022-11-22T08:05:13;97302.00;;;6.40
10058;BMP180;5068;51.286;7.518;2022-11-22T08:06:47;97294.00;;;6.40
10058;BMP180;5068;51.286;7.518;2022-11-22T08:08:20;97288.00;;;6.40
10058;BMP180;5068;51.286;7.518;2022-11-22T08:09:53;97285.00;;;6.40
10058;BMP180;5068;51.286;7.518;2022-11-22T08:11:26;97292.00;;;6.40
10058;BMP180;5068;51.286;7.518;2022-11-22T08:12:59;97300.00;;;6.40
10058;BMP180;5068;51.286;7.518;2022-11-22T08:14:34;97299.00;;;6.40
10058;BMP180;5068;51.286;7.518;2022-11-22T08:16:11;97301.00;;;6.50
10058;BMP180;5068;51.286;7.518;2022-11-22T08:17:44;97312.00;;;6.50
10058;BMP180;5068;51.286;7.518;2022-11-22T08:19:18;97306.00;;;6.50
10058;BMP180;5068;51.286;7.518;2022-11-22T08:21:00;97292.00;;;6.50
10058;BMP180;5068;51.286;7.518;2022-11-22T08:22:34;97297.00;;;6.50
10058;BMP180;5068;51.286;7.518;2022-11-22T08:24:07;97295.00;;;6.50
10058;BMP180;5068;51.286;7.518;2022-11-22T08:25:41;97299.00;;;6.50
10058;BMP180;5068;51.286;7.518;2022-11-22T08:27:14;97302.00;;;6.50
10058;BMP180;5068;51.286;7.518;2022-11-22T08:28:47;97303.00;;;6.50
10058;BMP180;5068;51.286;7.518;2022-11-22T08:30:24;97311.00;;;6.60
10058;BMP180;5068;51.286;7.518;2022-11-22T08:31:57;97297.00;;;6.60
10058;BMP180;5068;51.286;7.518;2022-11-22T08:33:34;97297.00;;;6.60
10058;BMP180;5068;51.286;7.518;2022-11-22T08:35:08;97291.00;;;6.60
10058;BMP180;5068;51.286;7.518;2022-11-22T08:36:41;97303.00;;;6.60
10058;BMP180;5068;51.286;7.518;2022-11-22T08:38:14;97304.00;;;6.60
10058;BMP180;5068;51.286;7.518;2022-11-22T08:39:49;97293.00;;;6.60
10058;BMP180;5068;51.286;7.518;2022-11-22T08:41:22;97303.00;;;6.60
10058;BMP180;5068;51.286;7.518;2022-11-22T08:42:56;97301.00;;;6.60
10058;BMP180;5068;51.286;7.518;2022-11-22T08:44:29;97299.00;;;6.60
10058;BMP180;5068;51.286;7.518;2022-11-22T08:46:04;97296.00;;;6.60
10058;BMP180;5068;51.286;7.518;2022-11-22T08:47:38;97303.00;;;6.60
10058;BMP180;5068;51.286;7.518;2022-11-22T08:49:12;97315.00;;;6.60
10058;BMP180;5068;51.286;7.518;2022-11-22T08:50:50;97315.00;;;6.60
10058;BMP180;5068;51.286;7.518;2022-11-22T08:52:23;97302.00;;;6.60
10058;BMP180;5068;51.286;7.518;2022-11-22T08:53:57;97312.00;;;6.70
10058;BMP180;5068;51.286;7.518;2022-11-22T08:55:30;97312.00;;;6.70
10058;BMP180;5068;51.286;7.518;2022-11-22T08:57:04;97312.00;;;6.70
10058;BMP180;5068;51.286;7.518;2022-11-22T08:58:37;97307.00;;;6.70
10058;BMP180;5068;51.286;7.518;2022-11-22T09:00:12;97302.00;;;6.70
10058;BMP180;5068;51.286;7.518;2022-11-22T09:01:47;97312.00;;;6.80
10058;BMP180;5068;51.286;7.518;2022-11-22T09:03:20;97319.00;;;6.80
10058;BMP180;5068;51.286;7.518;2022-11-22T09:04:54;97318.00;;;6.90
10058;BMP180;5068;51.286;7.518;2022-11-22T09:06:27;97323.00;;;6.90
10058;BMP180;5068;51.286;7.518;2022-11-22T09:08:20;97319.00;;;7.00
10058;BMP180;5068;51.286;7.518;2022-11-22T09:09:53;97325.00;;;7.00
10058;BMP180;5068;51.286;7.518;2022-11-22T09:11:27;97328.00;;;7.10
10058;BMP180;5068;51.286;7.518;2022-11-22T09:13:01;97329.00;;;7.20
10058;BMP180;5068;51.286;7.518;2022-11-22T09:14:34;97337.00;;;7.20
10058;BMP180;5068;51.286;7.518;2022-11-22T09:16:11;97340.00;;;7.30
10058;BMP180;5068;51.286;7.518;2022-11-22T09:17:46;97337.00;;;7.40
10058;BMP180;5068;51.286;7.518;2022-11-22T09:19:19;97337.00;;;7.40
10058;BMP180;5068;51.286;7.518;2022-11-22T09:20:57;97336.00;;;7.50
10058;BMP180;5068;51.286;7.518;2022-11-22T09:22:31;97337.00;;;7.50